Flight Track Log - Related Links

Times and Time Zones

All times are in EST time to prevent confusion due to time zone crossing. See the EJA941 flight status page for this flight to view local times or setup timezone preferences in your user account.


Time Position Orientation Groundspeed Altitude Reporting Facility
EST Latitude Longitude Course Direction KTS MPH feet Rate Location/Type
Fri 02:37:25 PM 28.7017 -96.7619 328° Northwest 262 302 8,300  Level Houston Center
Fri 02:38:27 PM 28.7675 -96.7061 37° Northeast 295 339 11,500 2,323 Climbing Houston Center
Fri 02:39:29 PM 28.8333 -96.6231 48° Northeast 361 415 13,100 1,355 Climbing Houston Center
Fri 02:40:00 PM 28.9611 -96.2523 North  Level Estimated
Fri 02:40:31 PM 28.9094 -96.5275 48° Northeast 398 458 14,300  Level Houston Center
Fri 02:41:00 PM 29.0347 -96.2319 41° Northeast  Level FlightAware Approximate
Fri 02:41:33 PM 29.0100 -96.4036 47° Northeast 436 502 14,900  Level Houston Center
Fri 02:42:36 PM 29.0972 -96.2939 48° Northeast 460 529 14,200 -1,296 Descending Houston Center
Fri 02:43:38 PM 29.1828 -96.1892 47° Northeast 456 525 12,200 -1,065 Descending Houston Center
Fri 02:44:40 PM 29.2636 -96.0856 48° Northeast 373 429 12,000 -145 Descending Houston Center
Fri 02:45:42 PM 29.3256 -96.0139 45° Northeast 347 399 11,900 -304 Descending Houston Center
Fri 02:45:59 PM 29.3575 -95.9817 41° Northeast 327 376 11,600 -1,355 Descending Houston Center
Fri 02:46:44 PM 29.3978 -95.9386 43° Northeast 332 382 10,500 -1,745 Descending Houston Center
Fri 02:46:54 PM 29.4189 -95.9172 41° Northeast 323 372 10,000 -1,452 Descending Houston Center
Fri 02:47:46 PM 29.4639 -95.8692 43° Northeast 323 372 9,000 -871 Descending Houston Center
Fri 02:47:56 PM 29.4842 -95.8472 43° Northeast 319 367 9,100 -968 Climbing Houston Center
Fri 02:48:48 PM 29.5358 -95.7928 43° Northeast 296 341 8,000 -1,082 Descending Houston Center
Fri 02:48:57 PM 29.5439 -95.7853 39° Northeast 289 333 8,000 -1,143 Level Houston Center
Fri 02:49:51 PM 29.5800 -95.7175 58° Northeast 284 327 6,800 -1,254 Descending Houston Center
Fri 02:50:04 PM 29.5906 -95.6958 61° Northeast 280 322 6,600 -774 Descending Houston Center
Fri 02:50:53 PM 29.6150 -95.6444 61° Northeast 268 308 6,000 -545 Descending Houston Center
Fri 02:50:59 PM 29.6208 -95.6369 48° Northeast 251 289 6,100 -871 Climbing Houston Center
Fri 02:51:55 PM 29.6558 -95.5781 56° Northeast 256 295 5,100 -1,082 Descending Houston Center
Fri 02:52:00 PM 29.6650 -95.5669 46° Northeast 258 297 5,000 -1,065 Descending Houston Center
Fri 02:52:57 PM 29.7014 -95.5169 50° Northeast 252 290 4,000 -1,082 Descending Houston Center
Fri 02:53:01 PM 29.7097 -95.5039 54° Northeast 252 290 3,900 -1,065 Descending Houston Center
Fri 02:53:59 PM 29.7453 -95.4567 49° Northeast 247 284 2,900 -1,065 Descending Houston Center
Fri 02:54:03 PM 29.7547 -95.4456 46° Northeast 242 278 2,800 -738 Descending Houston Center
Fri 02:55:04 PM 29.7486 -95.4006 99° East 133 153 2,100 -393 Descending Houston Center
Fri 02:56:05 PM 29.7158 -95.3636 136° Southeast 164 189 2,000 -393 Descending Houston Center
Fri 02:57:06 PM 29.6939 -95.3364 133° Southeast 150 173 1,300 -639 Descending Houston Center
Fri 02:58:07 PM 29.6689 -95.3092 137° Southeast 124 143 700 -581 Descending Houston Center
Fri 02:58:08 PM 29.6711 -95.3089 North 131 151 700 -571 Level Houston Center
Fri 02:59:10 PM 29.6486 -95.2828 135° Southeast 122 140 100 -581 Descending Houston Center

Login

Don't have an account? Register now (free) for customized features, flight alerts, and more!